Douglas, GA (31533)

5:05 AM EDT on October 01, 2014 (GMT -0400)
Douglas Golf Club Area | Change Station
CLOSE
Current Station
Personal Weather Station
Location: Douglas, GA
Elevation: 224 ft
Nearby Weather Stations

Elev 224 ft 31.52 °N, 82.84 °W | Updated 1 minute ago

Scattered Clouds
Scattered Clouds
65.8 °F
Feels Like 65.8 °F
N
0.0
Wind Variable Wind from WNW
Gusts 0.0 mph

Today
High -- | Low -- °F
--% Chance of Precip.
Yesterday
High -- | Low -- °F
Precip. -- in
7:25 AM 7:16 PM
Waxing Crescent, 45% visible
Pressure 29.92 in
Visibility 3.0 miles
Clouds Scattered Clouds 4700 ft
Dew Point 65 °F
Humidity 97%
Rainfall 0.00 in
Snow Depth Not available.
UV 0 out of 12
Pollen 5.60 out of 12
Air Quality Not available.
Flu Activity Not available.
METAR KDQH 010835Z AUTO 00000KT 3SM BR SCT047 20/18 A2992 RMK AO2

More Conditions Fewer Conditions

Pressure 29.92 in
Visibility 3.0 miles
Clouds Scattered Clouds 4700 ft
Dew Point 65 °F
Humidity 97%
Rainfall 0.00 in
Snow Depth Not available.
UV 0 out of 12
Pollen 5.60 out of 12
Air Quality Not available.
Flu Activity Not available.
METAR KDQH 010835Z AUTO 00000KT 3SM BR SCT047 20/18 A2992 RMK AO2

More Conditions Fewer Conditions

10-Day Weather Forecast

Almanac

Astronomy

Oct. 01, 2014 Rise Set
Actual Time 7:25 AM EDT 7:16 PM EDT
Civil Twilight 7:00 AM EDT 7:40 PM EDT
Nautical Twilight 6:32 AM EDT 8:08 PM EDT
Astronomical Twilight 6:04 AM EDT 8:37 PM EDT
Moon 2:09 PM EDT 12:03 AM EDT
Length of Visible Light 12h 39m
Length of Day
11h 51m
Tomorrow will be 1m 54s shorter.
Waxing Crescent, 45% of the Moon is Illuminated
Today
Waxing Crescent
Oct 1
First Quarter
Oct 8
Full
Oct 15
Last Quarter
Oct 23
New

Today's Extremes

State Highs State Lows

Community

WunderPhotos

Upload Photos

1,757,902 photos uploaded!

Nearby

Snow Depth

Station Depth Elevation
No new snow has been reported.

Earthquake Activity

City Distance Mag. Time & Date
No recent earthquake activity has been reported nearby.
Minimum magnitude displayed is 2.5.

Coastal Water Temperatures

Place Temperature
No Stations Reporting

Nearby Weather Stations